createdAt,value
2023-03-29T00:02:11.167Z,-1.62
2023-03-29T00:04:45.243Z,-1.63
2023-03-29T00:07:18.399Z,-1.62
2023-03-29T00:09:51.489Z,-1.65
2023-03-29T00:12:24.460Z,-1.65
2023-03-29T00:14:58.803Z,-1.66
2023-03-29T00:17:32.036Z,-1.66
2023-03-29T00:20:08.548Z,-1.69
2023-03-29T00:22:43.136Z,-1.68
2023-03-29T00:25:16.381Z,-1.67
2023-03-29T00:27:49.417Z,-1.66
2023-03-29T00:30:23.815Z,-1.66
2023-03-29T00:33:02.042Z,-1.65
2023-03-29T00:35:35.524Z,-1.66
2023-03-29T00:38:08.546Z,-1.64
2023-03-29T00:40:43.813Z,-1.66
2023-03-29T00:43:17.609Z,-1.67
2023-03-29T00:45:52.044Z,-1.67
2023-03-29T00:48:29.043Z,-1.66
2023-03-29T00:51:08.208Z,-1.67
2023-03-29T00:53:48.381Z,-1.67
2023-03-29T00:56:25.110Z,-1.67
2023-03-29T00:59:02.368Z,-1.68
2023-03-29T01:01:43.362Z,-1.66
2023-03-29T01:04:21.153Z,-1.69
2023-03-29T01:06:58.337Z,-1.69
2023-03-29T01:09:35.073Z,-1.70
2023-03-29T01:12:14.414Z,-1.69
2023-03-29T01:14:52.494Z,-1.69
2023-03-29T01:17:26.959Z,-1.71
2023-03-29T01:20:10.802Z,-1.71
2023-03-29T01:23:06.610Z,-1.69
2023-03-29T01:25:47.300Z,-1.71
2023-03-29T01:28:24.379Z,-1.71
2023-03-29T01:31:03.802Z,-1.72
2023-03-29T01:33:42.669Z,-1.73
2023-03-29T01:36:20.161Z,-1.74
2023-03-29T01:38:58.158Z,-1.75
2023-03-29T01:41:41.357Z,-1.75
2023-03-29T01:44:20.639Z,-1.74
2023-03-29T01:46:56.900Z,-1.76
2023-03-29T01:49:38.070Z,-1.77
2023-03-29T01:52:17.403Z,-1.78
2023-03-29T01:54:57.263Z,-1.79
2023-03-29T01:57:33.065Z,-1.79
2023-03-29T02:00:11.084Z,-1.80
2023-03-29T02:02:48.033Z,-1.82
2023-03-29T02:05:24.525Z,-1.84
2023-03-29T02:08:00.003Z,-1.88
2023-03-29T02:10:35.085Z,-1.90
2023-03-29T02:13:09.432Z,-1.91
2023-03-29T02:15:45.627Z,-1.92
2023-03-29T02:18:21.055Z,-1.94
2023-03-29T02:20:56.103Z,-1.94
2023-03-29T02:23:34.961Z,-1.96
2023-03-29T02:26:09.080Z,-1.98
2023-03-29T02:28:42.818Z,-2.00
2023-03-29T02:31:24.944Z,-2.01
2023-03-29T02:34:03.399Z,-2.04
2023-03-29T02:36:41.720Z,-2.06
2023-03-29T02:39:17.095Z,-2.09
2023-03-29T02:41:52.406Z,-2.10
2023-03-29T02:44:28.915Z,-2.12
2023-03-29T02:47:07.746Z,-2.15
2023-03-29T02:49:40.721Z,-2.16
2023-03-29T02:52:18.818Z,-2.17
2023-03-29T02:54:55.168Z,-2.19
2023-03-29T02:57:28.759Z,-2.21
2023-03-29T03:00:04.633Z,-2.23
2023-03-29T03:02:39.292Z,-2.26
2023-03-29T03:05:14.182Z,-2.27
2023-03-29T03:07:47.448Z,-2.28
2023-03-29T03:10:20.452Z,-2.30
2023-03-29T03:12:53.455Z,-2.30
2023-03-29T03:15:27.394Z,-2.33
2023-03-29T03:18:02.239Z,-2.36
2023-03-29T03:20:35.320Z,-2.37
2023-03-29T03:23:09.757Z,-2.37
2023-03-29T03:25:45.840Z,-2.39
2023-03-29T03:28:20.283Z,-2.40
2023-03-29T03:30:54.236Z,-2.41
2023-03-29T03:33:47.438Z,-2.40
2023-03-29T03:36:43.227Z,-2.42
2023-03-29T03:39:18.364Z,-2.42
2023-03-29T03:41:51.503Z,-2.44
2023-03-29T03:44:24.942Z,-2.44
2023-03-29T03:47:14.798Z,-2.45
2023-03-29T03:49:49.977Z,-2.47
2023-03-29T03:52:25.273Z,-2.49
2023-03-29T03:54:58.344Z,-2.37
2023-03-29T03:57:47.959Z,-2.48
2023-03-29T04:00:24.360Z,-2.50
2023-03-29T04:03:17.183Z,-2.52
2023-03-29T04:05:52.052Z,-2.55
2023-03-29T04:08:27.256Z,-2.56
2023-03-29T04:11:15.331Z,-2.56
2023-03-29T04:13:48.885Z,-2.56
2023-03-29T04:16:34.920Z,-2.56
2023-03-29T04:19:23.090Z,-2.55
2023-03-29T04:21:57.920Z,-2.57
2023-03-29T04:24:30.944Z,-2.58
2023-03-29T04:27:24.209Z,-2.58
2023-03-29T04:29:57.319Z,-2.56
2023-03-29T04:32:50.500Z,-2.58
2023-03-29T04:35:24.982Z,-2.58
2023-03-29T04:37:59.545Z,-2.56
2023-03-29T04:40:33.513Z,-2.55
2023-03-29T04:43:23.764Z,-2.52
2023-03-29T04:46:13.270Z,-2.52
2023-03-29T04:49:05.906Z,-2.50
2023-03-29T04:51:42.377Z,-2.48
2023-03-29T04:54:17.702Z,-2.48
2023-03-29T04:57:19.693Z,-2.47
2023-03-29T05:00:16.952Z,-2.45
2023-03-29T05:03:08.113Z,-2.40
2023-03-29T05:05:45.364Z,-2.39
2023-03-29T05:08:18.535Z,-2.36
2023-03-29T05:11:13.642Z,-2.32
2023-03-29T05:13:48.345Z,-2.29
2023-03-29T05:16:21.658Z,-2.24
2023-03-29T05:18:55.378Z,-2.20
2023-03-29T05:21:29.435Z,-2.14
2023-03-29T05:24:06.132Z,-2.07
2023-03-29T05:27:00.502Z,-1.98
2023-03-29T05:29:36.737Z,-1.88
2023-03-29T05:32:28.698Z,-1.75
2023-03-29T05:35:01.876Z,-1.60
2023-03-29T05:37:35.127Z,-1.46
2023-03-29T05:40:10.370Z,-1.28
2023-03-29T05:43:02.578Z,-1.09
2023-03-29T05:45:35.613Z,-0.92
2023-03-29T05:48:08.939Z,-0.76
2023-03-29T05:50:44.437Z,-0.59
2023-03-29T05:53:20.121Z,-0.40
2023-03-29T05:55:54.762Z,-0.23
2023-03-29T05:58:31.106Z,-0.09
2023-03-29T06:01:06.051Z,0.07
2023-03-29T06:04:02.207Z,0.25
2023-03-29T06:06:45.378Z,0.43
2023-03-29T06:09:19.117Z,0.59
2023-03-29T06:12:04.015Z,0.71
2023-03-29T06:14:48.265Z,0.84
2023-03-29T06:17:31.643Z,0.97
2023-03-29T06:20:08.800Z,1.09
2023-03-29T06:22:42.889Z,1.22
2023-03-29T06:25:18.492Z,1.39
2023-03-29T06:27:54.212Z,1.57
2023-03-29T06:30:28.852Z,1.73
2023-03-29T06:33:02.898Z,1.86
2023-03-29T06:35:59.843Z,2.06
2023-03-29T06:38:35.311Z,2.22
2023-03-29T06:41:21.567Z,2.31
2023-03-29T06:44:23.234Z,2.39
2023-03-29T06:47:06.267Z,2.48
2023-03-29T06:49:39.534Z,2.61
2023-03-29T06:52:26.104Z,2.74
2023-03-29T06:55:01.695Z,2.90
2023-03-29T06:57:35.221Z,3.09
2023-03-29T07:00:17.077Z,3.26
2023-03-29T07:03:26.862Z,3.49
2023-03-29T07:06:03.948Z,3.65
2023-03-29T07:08:43.495Z,3.85
2023-03-29T07:11:24.169Z,4.07
2023-03-29T07:14:03.881Z,4.23
2023-03-29T07:16:40.053Z,4.39
2023-03-29T07:19:29.093Z,4.58
2023-03-29T07:22:02.335Z,4.76
2023-03-29T07:24:49.359Z,4.98
2023-03-29T07:27:22.745Z,5.19
2023-03-29T07:29:56.975Z,5.41
2023-03-29T07:32:32.162Z,5.66
2023-03-29T07:35:30.824Z,5.93
2023-03-29T07:38:04.521Z,6.23
2023-03-29T07:40:38.650Z,6.50
2023-03-29T07:43:30.387Z,6.66
2023-03-29T07:46:04.872Z,6.75
2023-03-29T07:48:40.012Z,6.88
2023-03-29T07:51:17.390Z,7.04
2023-03-29T07:54:05.555Z,7.17
2023-03-29T07:56:41.637Z,7.42
2023-03-29T07:59:25.264Z,7.78
2023-03-29T08:02:08.353Z,8.24
2023-03-29T08:05:06.392Z,8.68
2023-03-29T08:08:01.172Z,9.23
2023-03-29T08:10:58.222Z,10.01
2023-03-29T08:13:42.082Z,10.98
2023-03-29T08:16:33.609Z,12.23
2023-03-29T08:19:14.677Z,13.43
2023-03-29T08:22:10.885Z,14.94
2023-03-29T08:25:04.317Z,16.33
2023-03-29T08:27:42.546Z,17.41
2023-03-29T08:30:17.458Z,18.17
2023-03-29T08:32:53.007Z,19.03
2023-03-29T08:35:28.284Z,19.98
2023-03-29T08:38:21.973Z,20.48
2023-03-29T08:40:58.043Z,21.05
2023-03-29T08:44:02.079Z,21.71
2023-03-29T08:47:03.688Z,22.63
2023-03-29T08:50:02.530Z,23.38
2023-03-29T08:52:50.108Z,24.23
2023-03-29T08:55:49.003Z,24.53
2023-03-29T08:58:56.359Z,24.99
2023-03-29T09:01:35.410Z,25.37
2023-03-29T09:04:14.856Z,25.77
2023-03-29T09:07:12.445Z,26.30
2023-03-29T09:09:49.866Z,27.13
2023-03-29T09:12:50.461Z,27.34
2023-03-29T09:15:31.829Z,27.52
2023-03-29T09:18:23.863Z,28.07
2023-03-29T09:21:02.146Z,28.22
2023-03-29T09:24:08.577Z,28.62
2023-03-29T09:27:05.724Z,29.63
2023-03-29T09:30:00.656Z,30.49
2023-03-29T09:32:55.526Z,31.09
2023-03-29T09:35:39.120Z,31.58
2023-03-29T09:38:15.077Z,31.48
2023-03-29T09:40:52.804Z,31.38
2023-03-29T09:43:33.475Z,31.15
2023-03-29T09:46:18.212Z,31.40
2023-03-29T09:48:54.735Z,32.07
2023-03-29T09:51:31.172Z,32.64
2023-03-29T09:54:04.633Z,32.38
2023-03-29T09:57:00.267Z,32.54
2023-03-29T09:59:33.454Z,32.98
2023-03-29T10:02:08.546Z,33.55
2023-03-29T10:04:44.633Z,33.37
2023-03-29T10:07:23.774Z,33.22
2023-03-29T10:10:02.453Z,33.39
2023-03-29T10:12:36.694Z,33.45
2023-03-29T10:15:26.745Z,33.30
2023-03-29T10:18:06.934Z,33.13
2023-03-29T10:20:42.139Z,33.37
2023-03-29T10:23:19.432Z,33.80
2023-03-29T10:25:53.235Z,34.16
2023-03-29T10:28:31.114Z,34.10
2023-03-29T10:31:08.159Z,33.75
2023-03-29T10:33:41.872Z,33.42
2023-03-29T10:36:16.564Z,33.12
2023-03-29T10:38:49.693Z,33.15
2023-03-29T10:41:24.305Z,32.99
2023-03-29T10:43:57.563Z,33.07
2023-03-29T10:46:33.008Z,32.91
2023-03-29T10:49:16.236Z,32.47
2023-03-29T10:51:56.732Z,32.85
2023-03-29T10:54:29.901Z,33.49
2023-03-29T10:57:09.025Z,34.13
2023-03-29T10:59:54.287Z,34.66
2023-03-29T11:02:50.228Z,35.00
2023-03-29T11:05:31.333Z,34.74
2023-03-29T11:08:24.476Z,34.61
2023-03-29T11:11:09.752Z,34.69
2023-03-29T11:13:51.483Z,34.70
2023-03-29T11:16:31.845Z,35.11
2023-03-29T11:19:17.830Z,35.47
2023-03-29T11:21:59.114Z,35.92
2023-03-29T11:24:52.552Z,36.12
2023-03-29T11:27:36.907Z,35.15
2023-03-29T11:30:20.514Z,34.16
2023-03-29T11:33:03.772Z,33.65
2023-03-29T11:35:48.861Z,32.72
2023-03-29T11:38:30.503Z,32.45
2023-03-29T11:41:13.565Z,32.80
2023-03-29T11:43:50.724Z,33.22
2023-03-29T11:46:29.066Z,33.61
2023-03-29T11:49:06.263Z,33.62
2023-03-29T11:51:43.797Z,33.34
2023-03-29T11:54:21.720Z,32.97
2023-03-29T11:57:01.811Z,32.84
2023-03-29T11:59:42.163Z,32.79
2023-03-29T12:02:22.816Z,32.79
2023-03-29T12:04:59.869Z,32.72
2023-03-29T12:07:37.976Z,33.06
2023-03-29T12:10:19.011Z,33.36
2023-03-29T12:13:00.988Z,33.03
2023-03-29T12:15:39.233Z,33.02
2023-03-29T12:18:21.265Z,32.50
2023-03-29T12:21:00.171Z,31.58
2023-03-29T12:23:34.700Z,31.10
2023-03-29T12:26:35.148Z,30.31
2023-03-29T12:29:38.061Z,29.33
2023-03-29T12:32:33.004Z,28.54
2023-03-29T12:35:48.857Z,27.19
2023-03-29T12:38:43.486Z,26.14
2023-03-29T12:41:53.458Z,24.65
2023-03-29T12:44:50.510Z,23.34
2023-03-29T12:47:42.488Z,22.18
2023-03-29T12:50:35.116Z,21.20
2023-03-29T12:53:19.726Z,20.47
2023-03-29T12:56:08.920Z,19.67
2023-03-29T12:58:51.414Z,18.94
2023-03-29T13:01:29.248Z,18.54
2023-03-29T13:04:18.475Z,18.06
2023-03-29T13:07:04.081Z,17.57
2023-03-29T13:09:50.015Z,17.14
2023-03-29T13:12:27.846Z,16.80
2023-03-29T13:15:03.391Z,16.37
2023-03-29T13:17:51.331Z,15.95
2023-03-29T13:20:44.594Z,15.57
2023-03-29T13:23:39.253Z,15.21
2023-03-29T13:26:31.625Z,14.75
2023-03-29T13:29:32.981Z,14.29
2023-03-29T13:32:27.381Z,13.88
2023-03-29T13:35:14.180Z,13.59
2023-03-29T13:38:02.294Z,13.40
2023-03-29T13:40:46.921Z,13.28
2023-03-29T13:43:23.716Z,13.02
2023-03-29T13:46:24.577Z,12.86
2023-03-29T13:49:06.885Z,12.65
2023-03-29T13:51:44.997Z,12.47
2023-03-29T13:54:28.288Z,12.34
2023-03-29T13:57:10.369Z,12.22
2023-03-29T13:59:55.797Z,12.10
2023-03-29T14:02:41.720Z,11.93
2023-03-29T14:05:18.932Z,11.74
2023-03-29T14:07:56.637Z,11.57
2023-03-29T14:10:38.068Z,11.44
2023-03-29T14:13:17.044Z,11.34
2023-03-29T14:15:54.814Z,11.22
2023-03-29T14:18:33.296Z,11.15
2023-03-29T14:21:11.009Z,11.12
2023-03-29T14:23:48.442Z,11.08
2023-03-29T14:26:24.080Z,11.06
2023-03-29T14:28:59.019Z,11.02
2023-03-29T14:31:33.987Z,10.96
2023-03-29T14:34:12.477Z,10.89
2023-03-29T14:36:46.876Z,10.82
2023-03-29T14:39:23.679Z,10.75
2023-03-29T14:41:58.175Z,10.70
2023-03-29T14:44:33.227Z,10.65
2023-03-29T14:47:06.545Z,10.61
2023-03-29T14:49:39.702Z,10.60
2023-03-29T14:52:13.761Z,10.55
2023-03-29T14:54:52.292Z,10.48
2023-03-29T14:57:27.281Z,10.46
2023-03-29T15:00:02.433Z,10.44
2023-03-29T15:02:35.685Z,10.42
2023-03-29T15:05:25.751Z,10.42
2023-03-29T15:07:59.507Z,10.33
2023-03-29T15:10:35.660Z,10.26
2023-03-29T15:13:09.758Z,10.23
2023-03-29T15:15:43.093Z,10.22
2023-03-29T15:18:21.854Z,10.20
2023-03-29T15:20:55.582Z,10.18
2023-03-29T15:23:36.880Z,10.17
2023-03-29T15:26:15.829Z,10.14
2023-03-29T15:28:55.502Z,10.15
2023-03-29T15:31:35.746Z,10.16
2023-03-29T15:34:12.499Z,10.17
2023-03-29T15:36:47.397Z,10.15
2023-03-29T15:39:20.980Z,10.14
2023-03-29T15:41:56.873Z,10.14
2023-03-29T15:44:33.859Z,10.11
2023-03-29T15:47:10.706Z,10.09
2023-03-29T15:49:47.740Z,10.05
2023-03-29T15:52:20.839Z,9.99
2023-03-29T15:54:54.164Z,9.94
2023-03-29T15:57:28.695Z,9.87
2023-03-29T16:00:02.758Z,9.84
2023-03-29T16:02:45.594Z,9.81
2023-03-29T16:05:21.893Z,9.75
2023-03-29T16:07:57.913Z,9.71
2023-03-29T16:10:30.950Z,9.66
2023-03-29T16:13:05.468Z,9.63
2023-03-29T16:15:38.723Z,9.60
2023-03-29T16:18:11.766Z,9.57
2023-03-29T16:20:44.843Z,9.52
2023-03-29T16:23:21.071Z,9.49
2023-03-29T16:25:54.217Z,9.45
2023-03-29T16:28:28.718Z,9.39
2023-03-29T16:31:05.260Z,9.36
2023-03-29T16:33:38.768Z,9.29
2023-03-29T16:36:19.978Z,9.24
2023-03-29T16:38:53.775Z,9.18
2023-03-29T16:41:27.814Z,9.14
2023-03-29T16:44:02.335Z,9.21
2023-03-29T16:46:35.287Z,9.20
2023-03-29T16:49:08.912Z,9.03
2023-03-29T16:51:44.150Z,8.96
2023-03-29T16:54:25.845Z,8.91
2023-03-29T16:57:02.574Z,8.88
2023-03-29T16:59:37.514Z,8.85
2023-03-29T17:02:14.276Z,8.82
2023-03-29T17:04:49.322Z,8.80
2023-03-29T17:07:27.575Z,8.80
2023-03-29T17:10:00.703Z,8.79
2023-03-29T17:12:33.864Z,8.79
2023-03-29T17:15:09.483Z,8.77
2023-03-29T17:17:42.574Z,8.76
2023-03-29T17:20:15.701Z,8.75
2023-03-29T17:22:51.654Z,8.73
2023-03-29T17:25:24.853Z,8.73
2023-03-29T17:27:57.931Z,8.73
2023-03-29T17:30:34.449Z,8.74
2023-03-29T17:33:09.472Z,8.73
2023-03-29T17:35:46.245Z,8.69
2023-03-29T17:38:21.157Z,8.64
2023-03-29T17:40:54.337Z,8.60
2023-03-29T17:43:27.344Z,8.54
2023-03-29T17:46:02.225Z,8.49
2023-03-29T17:48:38.214Z,8.43
2023-03-29T17:51:11.237Z,8.36
2023-03-29T17:53:46.097Z,8.31
2023-03-29T17:56:20.276Z,8.26
2023-03-29T17:58:53.584Z,8.20
2023-03-29T18:01:33.521Z,8.16
2023-03-29T18:04:07.589Z,8.13
2023-03-29T18:06:40.632Z,8.11
2023-03-29T18:09:14.133Z,8.09
2023-03-29T18:11:47.150Z,8.06
2023-03-29T18:14:27.887Z,8.06
2023-03-29T18:17:14.993Z,8.03
2023-03-29T18:19:49.218Z,8.03
2023-03-29T18:22:28.860Z,8.02
2023-03-29T18:25:07.183Z,8.03
2023-03-29T18:27:45.161Z,8.05
2023-03-29T18:30:19.272Z,8.03
2023-03-29T18:32:55.184Z,8.02
2023-03-29T18:35:34.981Z,8.02
2023-03-29T18:38:14.167Z,8.01
2023-03-29T18:40:48.347Z,8.01
2023-03-29T18:43:23.391Z,8.03
2023-03-29T18:45:59.427Z,8.02
2023-03-29T18:48:42.016Z,7.99
2023-03-29T18:54:10.249Z,7.94
2023-03-29T18:56:46.964Z,7.92
2023-03-29T18:59:24.754Z,7.90
2023-03-29T19:02:03.936Z,7.87
2023-03-29T19:05:00.861Z,7.87
2023-03-29T19:07:41.768Z,7.86
2023-03-29T19:10:16.484Z,7.83
2023-03-29T19:13:01.411Z,7.82
2023-03-29T19:15:38.408Z,7.80
2023-03-29T19:18:14.417Z,7.76
2023-03-29T19:20:57.961Z,7.73
2023-03-29T19:23:34.183Z,7.68
2023-03-29T19:26:20.387Z,7.60
2023-03-29T19:28:53.848Z,7.53
2023-03-29T19:31:38.246Z,7.47
2023-03-29T19:34:27.883Z,7.39
2023-03-29T19:37:02.423Z,7.36
2023-03-29T19:39:35.463Z,7.32
2023-03-29T19:42:08.821Z,7.27
2023-03-29T19:44:47.051Z,7.24
2023-03-29T19:47:25.322Z,7.20
2023-03-29T19:49:59.639Z,7.17
2023-03-29T19:52:46.684Z,7.14
2023-03-29T19:55:22.644Z,7.09
2023-03-29T19:57:56.662Z,7.04
2023-03-29T20:00:30.040Z,7.02
2023-03-29T20:03:05.278Z,6.98
2023-03-29T20:05:39.883Z,6.96
2023-03-29T20:08:16.593Z,6.91
2023-03-29T20:11:10.427Z,6.89
2023-03-29T20:13:46.410Z,6.84
2023-03-29T20:19:14.130Z,6.79
2023-03-29T20:21:58.962Z,6.79
2023-03-29T20:24:36.362Z,6.78
2023-03-29T20:27:09.697Z,6.77
2023-03-29T20:29:45.420Z,6.77
2023-03-29T20:32:18.517Z,6.78
2023-03-29T20:34:54.597Z,6.77
2023-03-29T20:37:27.711Z,6.76
2023-03-29T20:40:04.073Z,6.78
2023-03-29T20:42:38.311Z,6.79
2023-03-29T20:45:18.645Z,6.80
2023-03-29T20:47:57.706Z,6.81
2023-03-29T20:50:31.011Z,6.81
2023-03-29T20:53:04.345Z,6.80
2023-03-29T20:55:39.121Z,6.78
2023-03-29T20:58:12.216Z,6.75
2023-03-29T21:00:46.915Z,6.73
2023-03-29T21:03:20.083Z,6.70
2023-03-29T21:05:55.915Z,6.65
2023-03-29T21:08:29.715Z,6.64
2023-03-29T21:11:04.281Z,6.61
2023-03-29T21:13:37.492Z,6.57
2023-03-29T21:16:11.595Z,6.57
2023-03-29T21:18:44.646Z,6.54
2023-03-29T21:21:17.704Z,6.54
2023-03-29T21:23:50.847Z,6.54
2023-03-29T21:26:26.139Z,6.52
2023-03-29T21:28:59.230Z,6.52
2023-03-29T21:31:32.205Z,6.51
2023-03-29T21:34:05.504Z,6.50
2023-03-29T21:36:39.817Z,6.49
2023-03-29T21:39:12.841Z,6.47
2023-03-29T21:41:47.422Z,6.46
2023-03-29T21:44:20.554Z,6.43
2023-03-29T21:46:53.644Z,6.40
2023-03-29T21:49:26.997Z,6.36
2023-03-29T21:52:00.000Z,6.38
2023-03-29T21:54:32.980Z,6.35
2023-03-29T21:57:07.433Z,6.30
2023-03-29T21:59:40.715Z,6.26
2023-03-29T22:02:13.744Z,6.21
2023-03-29T22:04:46.788Z,6.17
2023-03-29T22:07:22.787Z,6.14
2023-03-29T22:09:58.654Z,6.11
2023-03-29T22:12:37.135Z,6.10
2023-03-29T22:15:12.516Z,6.07
2023-03-29T22:17:45.672Z,6.05
2023-03-29T22:20:18.964Z,6.06
2023-03-29T22:22:55.673Z,6.04
2023-03-29T22:25:28.664Z,6.02
2023-03-29T22:28:03.033Z,6.00
2023-03-29T22:30:36.528Z,5.98
2023-03-29T22:33:09.606Z,5.96
2023-03-29T22:35:42.718Z,5.94
2023-03-29T22:38:15.807Z,5.95
2023-03-29T22:40:48.793Z,5.94
2023-03-29T22:43:23.351Z,5.90
2023-03-29T22:45:56.363Z,5.85
2023-03-29T22:48:29.338Z,5.83
2023-03-29T22:51:03.038Z,5.80
2023-03-29T22:53:36.061Z,5.88
2023-03-29T22:56:09.932Z,5.74
2023-03-29T22:58:44.466Z,5.81
2023-03-29T23:01:17.841Z,5.64
2023-03-29T23:03:50.933Z,5.58
2023-03-29T23:06:23.998Z,5.53
2023-03-29T23:08:56.971Z,5.48
2023-03-29T23:11:29.919Z,5.44
2023-03-29T23:14:04.885Z,5.39
2023-03-29T23:16:38.225Z,5.32
2023-03-29T23:19:11.369Z,5.30
2023-03-29T23:21:44.327Z,5.26
2023-03-29T23:24:19.216Z,5.23
2023-03-29T23:26:52.367Z,5.21
2023-03-29T23:29:26.837Z,5.20
2023-03-29T23:31:59.891Z,5.20
2023-03-29T23:34:33.164Z,5.20
2023-03-29T23:37:06.396Z,5.20
2023-03-29T23:39:39.520Z,5.16
2023-03-29T23:42:12.826Z,5.17
2023-03-29T23:44:47.383Z,5.19
2023-03-29T23:47:20.899Z,5.21
2023-03-29T23:49:54.671Z,5.27
2023-03-29T23:52:27.791Z,5.30
2023-03-29T23:55:01.557Z,5.33
2023-03-29T23:57:37.069Z,5.37
